Hayley, Arkansas
Current Conditions -  °F | °C
As of 2:56 PM on Thursday 18 Dec 2014 (Local Time) from KSRC Reporting Station
Haze Haze  
Wind Chill: 41°   Ceiling: 500
Heat Index: 41°   Visibility: 5mi
Dew Point: 39°   Wind: 3mph
Humidity: 93%   Direction: 20°NNE
Pressure: 30.2"   Gusts: NA
Location:  34.9712°N, 91.571°W
Report Text: KSRC 182056Z AUTO 02003KT 5SM BR OVC005 05/04 A3020 RMK AO2 SLP236 T00500039 55010 TSNO
Loading
Personal Weather Stations






























Interactive Weather Map New forecast layout! Learn more

10-Day Weather Forecast

Advertisements
Track Severe Weather on mobile